sensor_id;sensor_type;location;lat;lon;timestamp;temperature;humidity
5899;DHT22;2975;50.956;6.962;2023-12-22T00:01:40;5.00;99.90
5899;DHT22;2975;50.956;6.962;2023-12-22T00:04:05;4.90;99.90
5899;DHT22;2975;50.956;6.962;2023-12-22T00:06:32;4.70;99.90
5899;DHT22;2975;50.956;6.962;2023-12-22T00:08:58;4.70;99.90
5899;DHT22;2975;50.956;6.962;2023-12-22T00:11:23;4.70;99.90
5899;DHT22;2975;50.956;6.962;2023-12-22T00:13:49;4.70;99.90
5899;DHT22;2975;50.956;6.962;2023-12-22T00:16:14;4.70;99.90
5899;DHT22;2975;50.956;6.962;2023-12-22T00:18:40;4.70;99.90
5899;DHT22;2975;50.956;6.962;2023-12-22T00:21:10;4.60;99.90
5899;DHT22;2975;50.956;6.962;2023-12-22T00:23:36;4.60;99.90
5899;DHT22;2975;50.956;6.962;2023-12-22T00:26:01;4.70;99.90
5899;DHT22;2975;50.956;6.962;2023-12-22T00:28:27;4.80;99.90
5899;DHT22;2975;50.956;6.962;2023-12-22T00:30:53;4.80;99.90
5899;DHT22;2975;50.956;6.962;2023-12-22T00:33:18;4.90;99.90
5899;DHT22;2975;50.956;6.962;2023-12-22T00:35:44;4.90;99.90
5899;DHT22;2975;50.956;6.962;2023-12-22T00:38:09;5.00;99.90
5899;DHT22;2975;50.956;6.962;2023-12-22T00:40:35;5.10;99.90
5899;DHT22;2975;50.956;6.962;2023-12-22T00:43:01;5.20;99.90
5899;DHT22;2975;50.956;6.962;2023-12-22T00:45:26;5.30;99.90
5899;DHT22;2975;50.956;6.962;2023-12-22T00:47:52;5.30;99.90
5899;DHT22;2975;50.956;6.962;2023-12-22T00:50:18;5.30;99.90
5899;DHT22;2975;50.956;6.962;2023-12-22T00:52:43;5.40;99.90
5899;DHT22;2975;50.956;6.962;2023-12-22T00:55:09;5.40;99.90
5899;DHT22;2975;50.956;6.962;2023-12-22T00:57:35;5.40;99.90
5899;DHT22;2975;50.956;6.962;2023-12-22T01:00:00;5.40;99.90
5899;DHT22;2975;50.956;6.962;2023-12-22T01:02:26;5.40;99.90
5899;DHT22;2975;50.956;6.962;2023-12-22T01:04:51;5.40;99.90
5899;DHT22;2975;50.956;6.962;2023-12-22T01:07:17;5.40;99.90
5899;DHT22;2975;50.956;6.962;2023-12-22T01:09:44;5.40;99.90
5899;DHT22;2975;50.956;6.962;2023-12-22T01:12:09;5.40;99.90
5899;DHT22;2975;50.956;6.962;2023-12-22T01:14:36;5.50;99.90
5899;DHT22;2975;50.956;6.962;2023-12-22T01:17:02;5.50;99.90
5899;DHT22;2975;50.956;6.962;2023-12-22T01:19:27;5.50;99.90
5899;DHT22;2975;50.956;6.962;2023-12-22T01:21:53;5.50;99.90
5899;DHT22;2975;50.956;6.962;2023-12-22T01:24:19;5.60;99.90
5899;DHT22;2975;50.956;6.962;2023-12-22T01:26:44;5.70;99.90
5899;DHT22;2975;50.956;6.962;2023-12-22T01:29:10;5.60;99.90
5899;DHT22;2975;50.956;6.962;2023-12-22T01:31:35;5.70;99.90
5899;DHT22;2975;50.956;6.962;2023-12-22T01:34:01;5.70;99.90
5899;DHT22;2975;50.956;6.962;2023-12-22T01:36:27;5.70;99.90
5899;DHT22;2975;50.956;6.962;2023-12-22T01:38:52;5.70;99.90
5899;DHT22;2975;50.956;6.962;2023-12-22T01:41:18;5.70;99.90
5899;DHT22;2975;50.956;6.962;2023-12-22T01:43:43;5.70;99.90
5899;DHT22;2975;50.956;6.962;2023-12-22T01:46:09;5.70;99.90
5899;DHT22;2975;50.956;6.962;2023-12-22T01:48:37;5.80;99.90
5899;DHT22;2975;50.956;6.962;2023-12-22T01:51:04;5.70;99.90
5899;DHT22;2975;50.956;6.962;2023-12-22T01:53:30;5.80;99.90
5899;DHT22;2975;50.956;6.962;2023-12-22T01:55:57;5.80;99.90
5899;DHT22;2975;50.956;6.962;2023-12-22T01:58:26;5.80;99.90
5899;DHT22;2975;50.956;6.962;2023-12-22T02:00:53;5.80;99.90
5899;DHT22;2975;50.956;6.962;2023-12-22T02:03:19;5.70;99.90
5899;DHT22;2975;50.956;6.962;2023-12-22T02:05:46;5.70;99.90
5899;DHT22;2975;50.956;6.962;2023-12-22T02:08:12;5.60;99.90
5899;DHT22;2975;50.956;6.962;2023-12-22T02:10:38;5.60;99.90
5899;DHT22;2975;50.956;6.962;2023-12-22T02:13:07;5.60;99.90
5899;DHT22;2975;50.956;6.962;2023-12-22T02:15:34;5.60;99.90
5899;DHT22;2975;50.956;6.962;2023-12-22T02:18:07;5.40;99.90
5899;DHT22;2975;50.956;6.962;2023-12-22T02:20:34;5.40;99.90
5899;DHT22;2975;50.956;6.962;2023-12-22T02:23:00;5.30;99.90
5899;DHT22;2975;50.956;6.962;2023-12-22T02:25:26;5.20;99.90
5899;DHT22;2975;50.956;6.962;2023-12-22T02:28:02;5.30;99.90
5899;DHT22;2975;50.956;6.962;2023-12-22T02:30:53;5.20;99.90
5899;DHT22;2975;50.956;6.962;2023-12-22T02:33:21;5.20;99.90
5899;DHT22;2975;50.956;6.962;2023-12-22T02:35:49;5.30;99.90
5899;DHT22;2975;50.956;6.962;2023-12-22T02:38:16;5.50;99.90
5899;DHT22;2975;50.956;6.962;2023-12-22T02:40:43;5.50;99.90
5899;DHT22;2975;50.956;6.962;2023-12-22T02:43:09;5.60;99.90
5899;DHT22;2975;50.956;6.962;2023-12-22T02:45:35;5.60;99.90
5899;DHT22;2975;50.956;6.962;2023-12-22T02:48:01;5.60;99.90
5899;DHT22;2975;50.956;6.962;2023-12-22T02:50:26;5.70;99.90
5899;DHT22;2975;50.956;6.962;2023-12-22T02:52:52;5.70;99.90
5899;DHT22;2975;50.956;6.962;2023-12-22T02:55:17;5.50;99.90
5899;DHT22;2975;50.956;6.962;2023-12-22T02:57:43;5.50;99.90
5899;DHT22;2975;50.956;6.962;2023-12-22T03:00:09;5.50;99.90
5899;DHT22;2975;50.956;6.962;2023-12-22T03:02:35;5.40;99.90
5899;DHT22;2975;50.956;6.962;2023-12-22T03:05:00;5.40;99.90
5899;DHT22;2975;50.956;6.962;2023-12-22T03:07:26;5.40;99.90
5899;DHT22;2975;50.956;6.962;2023-12-22T03:09:51;5.40;99.90
5899;DHT22;2975;50.956;6.962;2023-12-22T03:12:17;5.40;99.90
5899;DHT22;2975;50.956;6.962;2023-12-22T03:14:43;5.30;99.90
5899;DHT22;2975;50.956;6.962;2023-12-22T03:17:08;5.20;99.90
5899;DHT22;2975;50.956;6.962;2023-12-22T03:19:36;5.30;99.90
5899;DHT22;2975;50.956;6.962;2023-12-22T03:22:02;5.20;99.90
5899;DHT22;2975;50.956;6.962;2023-12-22T03:24:27;5.10;99.90
5899;DHT22;2975;50.956;6.962;2023-12-22T03:26:54;5.10;99.90
5899;DHT22;2975;50.956;6.962;2023-12-22T03:29:20;5.10;99.90
5899;DHT22;2975;50.956;6.962;2023-12-22T03:31:46;5.10;99.90
5899;DHT22;2975;50.956;6.962;2023-12-22T03:34:12;5.10;99.90
5899;DHT22;2975;50.956;6.962;2023-12-22T03:36:38;5.10;99.90
5899;DHT22;2975;50.956;6.962;2023-12-22T03:39:05;5.10;99.90
5899;DHT22;2975;50.956;6.962;2023-12-22T03:41:30;5.20;99.90
5899;DHT22;2975;50.956;6.962;2023-12-22T03:43:56;5.20;99.90
5899;DHT22;2975;50.956;6.962;2023-12-22T03:46:22;5.40;99.90
5899;DHT22;2975;50.956;6.962;2023-12-22T03:48:49;5.40;99.90
5899;DHT22;2975;50.956;6.962;2023-12-22T03:51:15;5.60;99.90
5899;DHT22;2975;50.956;6.962;2023-12-22T03:53:41;5.60;99.90
5899;DHT22;2975;50.956;6.962;2023-12-22T03:56:08;5.70;99.90
5899;DHT22;2975;50.956;6.962;2023-12-22T03:58:34;5.80;99.90
5899;DHT22;2975;50.956;6.962;2023-12-22T04:01:00;5.90;99.90
5899;DHT22;2975;50.956;6.962;2023-12-22T04:03:25;6.00;99.90
5899;DHT22;2975;50.956;6.962;2023-12-22T04:05:51;6.10;99.90
5899;DHT22;2975;50.956;6.962;2023-12-22T04:08:17;6.20;99.90
5899;DHT22;2975;50.956;6.962;2023-12-22T04:10:43;6.30;99.90
5899;DHT22;2975;50.956;6.962;2023-12-22T04:13:09;6.40;99.90
5899;DHT22;2975;50.956;6.962;2023-12-22T04:15:35;6.40;99.90
5899;DHT22;2975;50.956;6.962;2023-12-22T04:18:01;6.40;99.90
5899;DHT22;2975;50.956;6.962;2023-12-22T04:20:26;6.50;99.90
5899;DHT22;2975;50.956;6.962;2023-12-22T04:22:52;6.50;99.90
5899;DHT22;2975;50.956;6.962;2023-12-22T04:25:18;6.50;99.90
5899;DHT22;2975;50.956;6.962;2023-12-22T04:27:43;6.50;99.90
5899;DHT22;2975;50.956;6.962;2023-12-22T04:30:09;6.50;99.90
5899;DHT22;2975;50.956;6.962;2023-12-22T04:32:35;6.50;99.90
5899;DHT22;2975;50.956;6.962;2023-12-22T04:35:00;6.60;99.90
5899;DHT22;2975;50.956;6.962;2023-12-22T04:37:26;6.60;99.90
5899;DHT22;2975;50.956;6.962;2023-12-22T04:39:51;6.60;99.90
5899;DHT22;2975;50.956;6.962;2023-12-22T04:42:17;6.60;99.90
5899;DHT22;2975;50.956;6.962;2023-12-22T04:44:43;6.60;99.90
5899;DHT22;2975;50.956;6.962;2023-12-22T04:47:09;6.60;99.90
5899;DHT22;2975;50.956;6.962;2023-12-22T04:49:35;6.60;99.90
5899;DHT22;2975;50.956;6.962;2023-12-22T04:52:00;6.60;99.90
5899;DHT22;2975;50.956;6.962;2023-12-22T04:54:26;6.70;99.90
5899;DHT22;2975;50.956;6.962;2023-12-22T04:56:51;6.70;99.90
5899;DHT22;2975;50.956;6.962;2023-12-22T04:59:17;6.70;99.90
5899;DHT22;2975;50.956;6.962;2023-12-22T05:01:42;6.70;99.90
5899;DHT22;2975;50.956;6.962;2023-12-22T05:04:08;6.70;99.90
5899;DHT22;2975;50.956;6.962;2023-12-22T05:06:35;6.70;99.90
5899;DHT22;2975;50.956;6.962;2023-12-22T05:09:00;6.70;99.90
5899;DHT22;2975;50.956;6.962;2023-12-22T05:11:26;6.70;99.90
5899;DHT22;2975;50.956;6.962;2023-12-22T05:13:51;6.70;99.90
5899;DHT22;2975;50.956;6.962;2023-12-22T05:16:17;6.80;99.90
5899;DHT22;2975;50.956;6.962;2023-12-22T05:18:42;6.80;99.90
5899;DHT22;2975;50.956;6.962;2023-12-22T05:21:12;6.90;99.90
5899;DHT22;2975;50.956;6.962;2023-12-22T05:23:38;6.90;99.90
5899;DHT22;2975;50.956;6.962;2023-12-22T05:26:03;7.00;99.90
5899;DHT22;2975;50.956;6.962;2023-12-22T05:28:29;7.10;99.90
5899;DHT22;2975;50.956;6.962;2023-12-22T05:30:55;7.10;99.90
5899;DHT22;2975;50.956;6.962;2023-12-22T05:33:20;7.20;99.90
5899;DHT22;2975;50.956;6.962;2023-12-22T05:35:46;7.20;99.90
5899;DHT22;2975;50.956;6.962;2023-12-22T05:38:11;7.20;99.90
5899;DHT22;2975;50.956;6.962;2023-12-22T05:40:37;7.30;99.90
5899;DHT22;2975;50.956;6.962;2023-12-22T05:43:02;7.30;99.90
5899;DHT22;2975;50.956;6.962;2023-12-22T05:45:28;7.40;99.90
5899;DHT22;2975;50.956;6.962;2023-12-22T05:47:54;7.40;99.90
5899;DHT22;2975;50.956;6.962;2023-12-22T05:50:19;7.40;99.90
5899;DHT22;2975;50.956;6.962;2023-12-22T05:52:45;7.50;99.90
5899;DHT22;2975;50.956;6.962;2023-12-22T05:55:11;7.60;99.90
5899;DHT22;2975;50.956;6.962;2023-12-22T05:57:36;7.60;99.90
5899;DHT22;2975;50.956;6.962;2023-12-22T06:00:03;7.60;99.90
5899;DHT22;2975;50.956;6.962;2023-12-22T06:02:33;7.60;99.90
5899;DHT22;2975;50.956;6.962;2023-12-22T06:04:58;7.60;99.90
5899;DHT22;2975;50.956;6.962;2023-12-22T06:07:24;7.60;99.90
5899;DHT22;2975;50.956;6.962;2023-12-22T06:09:50;7.60;99.90
5899;DHT22;2975;50.956;6.962;2023-12-22T06:12:15;7.60;99.90
5899;DHT22;2975;50.956;6.962;2023-12-22T06:14:41;7.60;99.90
5899;DHT22;2975;50.956;6.962;2023-12-22T06:17:06;7.70;99.90
5899;DHT22;2975;50.956;6.962;2023-12-22T06:19:32;7.70;99.90
5899;DHT22;2975;50.956;6.962;2023-12-22T06:21:57;7.70;99.90
5899;DHT22;2975;50.956;6.962;2023-12-22T06:24:23;7.70;99.90
5899;DHT22;2975;50.956;6.962;2023-12-22T06:26:49;7.70;99.90
5899;DHT22;2975;50.956;6.962;2023-12-22T06:29:15;7.70;99.90
5899;DHT22;2975;50.956;6.962;2023-12-22T06:31:41;7.70;99.90
5899;DHT22;2975;50.956;6.962;2023-12-22T06:34:06;7.70;99.90
5899;DHT22;2975;50.956;6.962;2023-12-22T06:36:32;7.70;99.90
5899;DHT22;2975;50.956;6.962;2023-12-22T06:38:58;7.80;99.90
5899;DHT22;2975;50.956;6.962;2023-12-22T06:41:28;7.80;99.90
5899;DHT22;2975;50.956;6.962;2023-12-22T06:43:55;7.80;99.90
5899;DHT22;2975;50.956;6.962;2023-12-22T06:46:22;7.80;99.90
5899;DHT22;2975;50.956;6.962;2023-12-22T06:48:48;7.80;99.90
5899;DHT22;2975;50.956;6.962;2023-12-22T06:51:32;7.90;99.90
5899;DHT22;2975;50.956;6.962;2023-12-22T06:54:01;7.90;99.90
5899;DHT22;2975;50.956;6.962;2023-12-22T06:56:30;7.90;99.90
5899;DHT22;2975;50.956;6.962;2023-12-22T06:58:57;7.90;99.90
5899;DHT22;2975;50.956;6.962;2023-12-22T07:01:29;7.90;99.90
5899;DHT22;2975;50.956;6.962;2023-12-22T07:03:55;7.80;99.90
5899;DHT22;2975;50.956;6.962;2023-12-22T07:06:22;7.80;99.90
5899;DHT22;2975;50.956;6.962;2023-12-22T07:11:51;7.80;99.90
5899;DHT22;2975;50.956;6.962;2023-12-22T07:14:18;7.80;99.90
5899;DHT22;2975;50.956;6.962;2023-12-22T07:16:44;7.70;99.90
5899;DHT22;2975;50.956;6.962;2023-12-22T07:19:10;7.70;99.90
5899;DHT22;2975;50.956;6.962;2023-12-22T07:21:42;7.70;99.90
5899;DHT22;2975;50.956;6.962;2023-12-22T07:24:08;7.70;99.90
5899;DHT22;2975;50.956;6.962;2023-12-22T07:26:34;7.70;99.90
5899;DHT22;2975;50.956;6.962;2023-12-22T07:29:00;7.70;99.90
5899;DHT22;2975;50.956;6.962;2023-12-22T07:31:25;7.60;99.90
5899;DHT22;2975;50.956;6.962;2023-12-22T07:33:52;7.60;99.90
5899;DHT22;2975;50.956;6.962;2023-12-22T07:36:17;7.60;99.90
5899;DHT22;2975;50.956;6.962;2023-12-22T07:38:49;7.50;99.90
5899;DHT22;2975;50.956;6.962;2023-12-22T07:41:22;7.50;99.90
5899;DHT22;2975;50.956;6.962;2023-12-22T07:43:48;7.40;99.90
5899;DHT22;2975;50.956;6.962;2023-12-22T07:46:20;7.40;99.90
5899;DHT22;2975;50.956;6.962;2023-12-22T07:48:47;7.40;99.90
5899;DHT22;2975;50.956;6.962;2023-12-22T07:51:13;7.40;99.90
5899;DHT22;2975;50.956;6.962;2023-12-22T07:53:38;7.40;99.90
5899;DHT22;2975;50.956;6.962;2023-12-22T07:56:04;7.40;99.90
5899;DHT22;2975;50.956;6.962;2023-12-22T07:58:31;7.40;99.90
5899;DHT22;2975;50.956;6.962;2023-12-22T08:00:58;7.40;99.90
5899;DHT22;2975;50.956;6.962;2023-12-22T08:03:24;7.50;99.90
5899;DHT22;2975;50.956;6.962;2023-12-22T08:05:49;7.50;99.90
5899;DHT22;2975;50.956;6.962;2023-12-22T08:08:15;7.50;99.90
5899;DHT22;2975;50.956;6.962;2023-12-22T08:10:41;7.60;99.90
5899;DHT22;2975;50.956;6.962;2023-12-22T08:13:06;7.50;99.90
5899;DHT22;2975;50.956;6.962;2023-12-22T08:15:32;7.60;99.90
5899;DHT22;2975;50.956;6.962;2023-12-22T08:17:58;7.70;99.90
5899;DHT22;2975;50.956;6.962;2023-12-22T08:20:23;7.70;99.90
5899;DHT22;2975;50.956;6.962;2023-12-22T08:22:49;7.70;99.90
5899;DHT22;2975;50.956;6.962;2023-12-22T08:25:15;7.70;99.90
5899;DHT22;2975;50.956;6.962;2023-12-22T08:27:41;7.80;99.90
5899;DHT22;2975;50.956;6.962;2023-12-22T08:30:11;7.80;99.90
5899;DHT22;2975;50.956;6.962;2023-12-22T08:32:37;7.90;99.90
5899;DHT22;2975;50.956;6.962;2023-12-22T08:35:03;8.00;99.90
5899;DHT22;2975;50.956;6.962;2023-12-22T08:37:30;8.10;99.90
5899;DHT22;2975;50.956;6.962;2023-12-22T08:39:55;8.20;99.90
5899;DHT22;2975;50.956;6.962;2023-12-22T08:42:21;8.20;99.90
5899;DHT22;2975;50.956;6.962;2023-12-22T08:44:50;8.30;99.90
5899;DHT22;2975;50.956;6.962;2023-12-22T08:47:15;8.30;99.90
5899;DHT22;2975;50.956;6.962;2023-12-22T08:49:41;8.30;99.90
5899;DHT22;2975;50.956;6.962;2023-12-22T08:52:07;8.30;99.90
5899;DHT22;2975;50.956;6.962;2023-12-22T08:54:33;8.40;99.90
5899;DHT22;2975;50.956;6.962;2023-12-22T08:56:59;8.40;99.90
5899;DHT22;2975;50.956;6.962;2023-12-22T08:59:26;8.40;99.90
5899;DHT22;2975;50.956;6.962;2023-12-22T09:01:51;8.50;99.90
5899;DHT22;2975;50.956;6.962;2023-12-22T09:04:17;8.50;99.90
5899;DHT22;2975;50.956;6.962;2023-12-22T09:06:42;8.60;99.90
5899;DHT22;2975;50.956;6.962;2023-12-22T09:09:08;8.70;99.90
5899;DHT22;2975;50.956;6.962;2023-12-22T09:11:37;8.70;99.90
5899;DHT22;2975;50.956;6.962;2023-12-22T09:14:05;8.80;99.90
5899;DHT22;2975;50.956;6.962;2023-12-22T09:16:31;8.80;99.90
5899;DHT22;2975;50.956;6.962;2023-12-22T09:18:57;8.80;99.90
5899;DHT22;2975;50.956;6.962;2023-12-22T09:21:22;8.90;99.90
5899;DHT22;2975;50.956;6.962;2023-12-22T09:23:48;8.90;99.90
5899;DHT22;2975;50.956;6.962;2023-12-22T09:26:15;8.90;99.90
5899;DHT22;2975;50.956;6.962;2023-12-22T09:28:41;8.90;99.90
5899;DHT22;2975;50.956;6.962;2023-12-22T09:31:08;9.00;99.90
5899;DHT22;2975;50.956;6.962;2023-12-22T09:33:33;9.00;99.90
5899;DHT22;2975;50.956;6.962;2023-12-22T09:35:59;9.00;99.90
5899;DHT22;2975;50.956;6.962;2023-12-22T09:38:25;9.00;99.90
5899;DHT22;2975;50.956;6.962;2023-12-22T09:40:51;9.00;99.90
5899;DHT22;2975;50.956;6.962;2023-12-22T09:43:19;9.10;99.90
5899;DHT22;2975;50.956;6.962;2023-12-22T09:45:46;9.20;99.90
5899;DHT22;2975;50.956;6.962;2023-12-22T09:48:13;9.20;99.90
5899;DHT22;2975;50.956;6.962;2023-12-22T09:50:43;9.20;99.90
5899;DHT22;2975;50.956;6.962;2023-12-22T09:53:13;9.30;99.90
5899;DHT22;2975;50.956;6.962;2023-12-22T09:55:45;9.30;99.90
5899;DHT22;2975;50.956;6.962;2023-12-22T09:58:15;9.30;99.90
5899;DHT22;2975;50.956;6.962;2023-12-22T10:00:44;9.30;99.90
5899;DHT22;2975;50.956;6.962;2023-12-22T10:03:11;9.40;99.90
5899;DHT22;2975;50.956;6.962;2023-12-22T10:05:42;9.40;99.90
5899;DHT22;2975;50.956;6.962;2023-12-22T10:08:09;9.40;99.90
5899;DHT22;2975;50.956;6.962;2023-12-22T10:10:38;9.50;99.90
5899;DHT22;2975;50.956;6.962;2023-12-22T10:13:04;9.50;99.90
5899;DHT22;2975;50.956;6.962;2023-12-22T10:15:35;9.50;99.90
5899;DHT22;2975;50.956;6.962;2023-12-22T10:18:01;9.50;99.90
5899;DHT22;2975;50.956;6.962;2023-12-22T10:20:27;9.50;99.90
5899;DHT22;2975;50.956;6.962;2023-12-22T10:22:53;9.50;99.90
5899;DHT22;2975;50.956;6.962;2023-12-22T10:25:27;9.50;99.90
5899;DHT22;2975;50.956;6.962;2023-12-22T10:27:53;9.50;99.90
5899;DHT22;2975;50.956;6.962;2023-12-22T10:30:19;9.50;99.90
5899;DHT22;2975;50.956;6.962;2023-12-22T10:32:45;9.50;99.90
5899;DHT22;2975;50.956;6.962;2023-12-22T10:35:11;9.40;99.90
5899;DHT22;2975;50.956;6.962;2023-12-22T10:37:37;9.40;99.90
5899;DHT22;2975;50.956;6.962;2023-12-22T10:40:04;9.40;99.90
5899;DHT22;2975;50.956;6.962;2023-12-22T10:42:32;9.40;99.90
5899;DHT22;2975;50.956;6.962;2023-12-22T10:44:57;9.40;99.90
5899;DHT22;2975;50.956;6.962;2023-12-22T10:47:23;9.50;99.90
5899;DHT22;2975;50.956;6.962;2023-12-22T10:49:49;9.40;99.90
5899;DHT22;2975;50.956;6.962;2023-12-22T10:52:18;9.40;99.90
5899;DHT22;2975;50.956;6.962;2023-12-22T10:54:44;9.50;99.90
5899;DHT22;2975;50.956;6.962;2023-12-22T10:57:11;9.40;99.90
5899;DHT22;2975;50.956;6.962;2023-12-22T10:59:40;9.30;99.90
5899;DHT22;2975;50.956;6.962;2023-12-22T11:02:11;9.30;99.90
5899;DHT22;2975;50.956;6.962;2023-12-22T11:04:40;9.30;99.90
5899;DHT22;2975;50.956;6.962;2023-12-22T11:07:08;9.30;99.90
5899;DHT22;2975;50.956;6.962;2023-12-22T11:09:35;9.30;99.90
5899;DHT22;2975;50.956;6.962;2023-12-22T11:12:02;9.40;99.90
5899;DHT22;2975;50.956;6.962;2023-12-22T11:14:30;9.40;99.90
5899;DHT22;2975;50.956;6.962;2023-12-22T11:16:57;9.40;99.90
5899;DHT22;2975;50.956;6.962;2023-12-22T11:19:25;9.40;99.90
5899;DHT22;2975;50.956;6.962;2023-12-22T11:21:53;9.50;99.90
5899;DHT22;2975;50.956;6.962;2023-12-22T11:24:20;9.60;99.90
5899;DHT22;2975;50.956;6.962;2023-12-22T11:26:47;9.60;99.90
5899;DHT22;2975;50.956;6.962;2023-12-22T11:29:15;9.60;99.90
5899;DHT22;2975;50.956;6.962;2023-12-22T11:31:45;9.60;99.90
5899;DHT22;2975;50.956;6.962;2023-12-22T11:34:14;9.60;99.90
5899;DHT22;2975;50.956;6.962;2023-12-22T11:36:43;9.60;99.90
5899;DHT22;2975;50.956;6.962;2023-12-22T11:39:10;9.70;99.90
5899;DHT22;2975;50.956;6.962;2023-12-22T11:41:38;9.70;99.90
5899;DHT22;2975;50.956;6.962;2023-12-22T11:44:05;9.80;99.90
5899;DHT22;2975;50.956;6.962;2023-12-22T11:46:31;9.80;99.90
5899;DHT22;2975;50.956;6.962;2023-12-22T11:48:59;9.80;99.90
5899;DHT22;2975;50.956;6.962;2023-12-22T11:51:31;9.80;99.90
5899;DHT22;2975;50.956;6.962;2023-12-22T11:53:57;9.80;99.90
5899;DHT22;2975;50.956;6.962;2023-12-22T11:56:24;9.80;99.90
5899;DHT22;2975;50.956;6.962;2023-12-22T11:58:52;9.80;99.90
5899;DHT22;2975;50.956;6.962;2023-12-22T12:01:25;9.90;99.90
5899;DHT22;2975;50.956;6.962;2023-12-22T12:03:52;9.90;99.90
5899;DHT22;2975;50.956;6.962;2023-12-22T12:09:00;10.00;99.90
5899;DHT22;2975;50.956;6.962;2023-12-22T12:14:23;10.10;99.90
5899;DHT22;2975;50.956;6.962;2023-12-22T12:16:59;10.20;99.90
5899;DHT22;2975;50.956;6.962;2023-12-22T12:19:26;10.30;99.90
5899;DHT22;2975;50.956;6.962;2023-12-22T12:21:51;10.40;99.90
5899;DHT22;2975;50.956;6.962;2023-12-22T12:24:17;10.40;99.90
5899;DHT22;2975;50.956;6.962;2023-12-22T12:26:43;10.40;99.90
5899;DHT22;2975;50.956;6.962;2023-12-22T12:29:09;10.40;99.90
5899;DHT22;2975;50.956;6.962;2023-12-22T12:31:38;10.40;99.90
5899;DHT22;2975;50.956;6.962;2023-12-22T12:34:04;10.40;99.90
5899;DHT22;2975;50.956;6.962;2023-12-22T12:36:31;10.50;99.90
5899;DHT22;2975;50.956;6.962;2023-12-22T12:39:07;10.50;99.90
5899;DHT22;2975;50.956;6.962;2023-12-22T12:41:36;10.50;99.90
5899;DHT22;2975;50.956;6.962;2023-12-22T12:44:06;10.50;99.90
5899;DHT22;2975;50.956;6.962;2023-12-22T12:46:36;10.60;99.90
5899;DHT22;2975;50.956;6.962;2023-12-22T12:49:12;10.60;99.90
5899;DHT22;2975;50.956;6.962;2023-12-22T12:51:38;10.70;99.90
5899;DHT22;2975;50.956;6.962;2023-12-22T12:54:05;10.70;99.90
5899;DHT22;2975;50.956;6.962;2023-12-22T12:56:44;10.70;99.90
5899;DHT22;2975;50.956;6.962;2023-12-22T12:59:11;10.80;99.90
5899;DHT22;2975;50.956;6.962;2023-12-22T13:01:42;10.80;99.90
5899;DHT22;2975;50.956;6.962;2023-12-22T13:04:08;10.90;99.90
5899;DHT22;2975;50.956;6.962;2023-12-22T13:06:34;10.90;99.90
5899;DHT22;2975;50.956;6.962;2023-12-22T13:09:00;10.90;99.90
5899;DHT22;2975;50.956;6.962;2023-12-22T13:11:28;10.90;99.90
5899;DHT22;2975;50.956;6.962;2023-12-22T13:13:56;10.90;99.90
5899;DHT22;2975;50.956;6.962;2023-12-22T13:16:25;10.90;99.90
5899;DHT22;2975;50.956;6.962;2023-12-22T13:18:53;10.90;99.90
5899;DHT22;2975;50.956;6.962;2023-12-22T13:21:19;10.80;99.90
5899;DHT22;2975;50.956;6.962;2023-12-22T13:23:44;10.90;99.90
5899;DHT22;2975;50.956;6.962;2023-12-22T13:26:19;10.90;99.90
5899;DHT22;2975;50.956;6.962;2023-12-22T13:28:45;10.80;99.90
5899;DHT22;2975;50.956;6.962;2023-12-22T13:31:12;10.90;99.90
5899;DHT22;2975;50.956;6.962;2023-12-22T13:33:40;10.80;99.90
5899;DHT22;2975;50.956;6.962;2023-12-22T13:36:06;10.80;99.90
5899;DHT22;2975;50.956;6.962;2023-12-22T13:38:33;10.80;99.90
5899;DHT22;2975;50.956;6.962;2023-12-22T13:41:01;10.80;99.90
5899;DHT22;2975;50.956;6.962;2023-12-22T13:43:30;10.80;99.90
5899;DHT22;2975;50.956;6.962;2023-12-22T13:45:56;10.80;99.90
5899;DHT22;2975;50.956;6.962;2023-12-22T13:48:22;10.80;99.90
5899;DHT22;2975;50.956;6.962;2023-12-22T13:51:01;10.80;99.90
5899;DHT22;2975;50.956;6.962;2023-12-22T13:53:27;10.70;99.90
5899;DHT22;2975;50.956;6.962;2023-12-22T13:55:56;10.70;99.90
5899;DHT22;2975;50.956;6.962;2023-12-22T13:58:21;10.70;99.90
5899;DHT22;2975;50.956;6.962;2023-12-22T14:00:47;10.70;99.90
5899;DHT22;2975;50.956;6.962;2023-12-22T14:03:13;10.70;99.90
5899;DHT22;2975;50.956;6.962;2023-12-22T14:05:42;10.70;99.90
5899;DHT22;2975;50.956;6.962;2023-12-22T14:08:07;10.70;99.90
5899;DHT22;2975;50.956;6.962;2023-12-22T14:10:33;10.70;99.90
5899;DHT22;2975;50.956;6.962;2023-12-22T14:12:59;10.70;99.90
5899;DHT22;2975;50.956;6.962;2023-12-22T14:15:25;10.70;99.90
5899;DHT22;2975;50.956;6.962;2023-12-22T14:17:54;10.60;99.90
5899;DHT22;2975;50.956;6.962;2023-12-22T14:20:21;10.60;99.90
5899;DHT22;2975;50.956;6.962;2023-12-22T14:22:46;10.40;99.90
5899;DHT22;2975;50.956;6.962;2023-12-22T14:25:12;10.40;99.90
5899;DHT22;2975;50.956;6.962;2023-12-22T14:27:38;10.40;99.90
5899;DHT22;2975;50.956;6.962;2023-12-22T14:30:04;10.30;99.90
5899;DHT22;2975;50.956;6.962;2023-12-22T14:32:30;10.30;99.90
5899;DHT22;2975;50.956;6.962;2023-12-22T14:34:55;10.30;99.90
5899;DHT22;2975;50.956;6.962;2023-12-22T14:37:21;10.20;99.90
5899;DHT22;2975;50.956;6.962;2023-12-22T14:39:49;10.20;99.90
5899;DHT22;2975;50.956;6.962;2023-12-22T14:42:15;10.20;99.90
5899;DHT22;2975;50.956;6.962;2023-12-22T14:44:40;10.10;99.90
5899;DHT22;2975;50.956;6.962;2023-12-22T14:47:06;10.10;99.90
5899;DHT22;2975;50.956;6.962;2023-12-22T14:49:32;10.10;99.90
5899;DHT22;2975;50.956;6.962;2023-12-22T14:51:57;10.10;99.90
5899;DHT22;2975;50.956;6.962;2023-12-22T14:54:25;10.10;99.90
5899;DHT22;2975;50.956;6.962;2023-12-22T14:56:51;10.10;99.90
5899;DHT22;2975;50.956;6.962;2023-12-22T14:59:17;10.10;99.90
5899;DHT22;2975;50.956;6.962;2023-12-22T15:01:43;10.10;99.90
5899;DHT22;2975;50.956;6.962;2023-12-22T15:04:09;10.10;99.90
5899;DHT22;2975;50.956;6.962;2023-12-22T15:06:38;10.10;99.90
5899;DHT22;2975;50.956;6.962;2023-12-22T15:09:09;10.20;99.90
5899;DHT22;2975;50.956;6.962;2023-12-22T15:11:41;10.20;99.90
5899;DHT22;2975;50.956;6.962;2023-12-22T15:14:06;10.20;99.90
5899;DHT22;2975;50.956;6.962;2023-12-22T15:16:32;10.10;99.90
5899;DHT22;2975;50.956;6.962;2023-12-22T15:18:57;10.10;99.90
5899;DHT22;2975;50.956;6.962;2023-12-22T15:21:23;10.00;99.90
5899;DHT22;2975;50.956;6.962;2023-12-22T15:23:49;10.00;99.90
5899;DHT22;2975;50.956;6.962;2023-12-22T15:26:25;10.00;99.90
5899;DHT22;2975;50.956;6.962;2023-12-22T15:28:54;10.00;99.90
5899;DHT22;2975;50.956;6.962;2023-12-22T15:31:20;9.90;99.90
5899;DHT22;2975;50.956;6.962;2023-12-22T15:33:46;9.90;99.90
5899;DHT22;2975;50.956;6.962;2023-12-22T15:36:17;9.90;99.90
5899;DHT22;2975;50.956;6.962;2023-12-22T15:38:43;9.90;99.90
5899;DHT22;2975;50.956;6.962;2023-12-22T15:41:08;10.00;99.90
5899;DHT22;2975;50.956;6.962;2023-12-22T15:43:34;10.00;99.90
5899;DHT22;2975;50.956;6.962;2023-12-22T15:46:03;10.00;99.90
5899;DHT22;2975;50.956;6.962;2023-12-22T15:48:29;10.00;99.90
5899;DHT22;2975;50.956;6.962;2023-12-22T15:50:55;10.00;99.90
5899;DHT22;2975;50.956;6.962;2023-12-22T15:53:20;10.00;99.90
5899;DHT22;2975;50.956;6.962;2023-12-22T15:55:46;10.00;99.90
5899;DHT22;2975;50.956;6.962;2023-12-22T15:58:11;10.00;99.90
5899;DHT22;2975;50.956;6.962;2023-12-22T16:00:37;10.00;99.90
5899;DHT22;2975;50.956;6.962;2023-12-22T16:03:03;10.00;99.90
5899;DHT22;2975;50.956;6.962;2023-12-22T16:05:28;10.00;99.90
5899;DHT22;2975;50.956;6.962;2023-12-22T16:07:54;10.00;99.90
5899;DHT22;2975;50.956;6.962;2023-12-22T16:10:24;10.00;99.90
5899;DHT22;2975;50.956;6.962;2023-12-22T16:12:51;9.90;99.90
5899;DHT22;2975;50.956;6.962;2023-12-22T16:15:17;10.00;99.90
5899;DHT22;2975;50.956;6.962;2023-12-22T16:17:42;9.90;99.90
5899;DHT22;2975;50.956;6.962;2023-12-22T16:20:09;10.00;99.90